Time;durP1;ratioP1;P1;durP2;ratioP2;P2;SDS_P1;SDS_P2;PMS_P1;PMS_P2;Temp;Humidity;BMP_temperature;BMP_pressure;BME280_temperature;BME280_humidity;BME280_pressure;Samples;Min_cycle;Max_cycle;Signal;HPM_P1;HPM_P2
2023/06/26 00:04:51;;;;;;;;;;;;;;;25.97;49.93;100260.23;109613;1262;66917;-90
2023/06/26 00:12:37;;;;;;;;;;;;;;;25.96;49.86;100258.35;109582;1262;67302;-90
2023/06/26 00:15:07;;;;;;;;;;;;;;;25.96;49.91;100251.80;109563;1261;66918;-89
2023/06/26 00:17:39;;;;;;;;;;;;;;;25.96;49.99;100247.69;109654;1260;66872;-89
2023/06/26 00:28:04;;;;;;;;;;;;;;;25.95;49.66;100244.24;109591;1262;68158;-89
2023/06/26 00:30:30;;;;;;;;;;;;;;;25.95;49.92;100248.05;109496;1260;66936;-89
2023/06/26 00:32:59;;;;;;;;;;;;;;;25.95;49.83;100249.46;109507;1260;68232;-89
2023/06/26 00:35:28;;;;;;;;;;;;;;;25.95;50.02;100250.02;109491;1261;71610;-88
2023/06/26 00:37:58;;;;;;;;;;;;;;;25.95;49.88;100252.86;109498;1262;67618;-89
2023/06/26 00:43:00;;;;;;;;;;;;;;;25.94;49.90;100251.54;109652;1260;67697;-89
2023/06/26 00:45:27;;;;;;;;;;;;;;;25.94;49.90;100251.50;109445;1260;74326;-89
2023/06/26 00:47:56;;;;;;;;;;;;;;;25.94;49.92;100254.79;109480;1260;67719;-89
2023/06/26 00:50:29;;;;;;;;;;;;;;;25.93;49.74;100255.52;109562;1260;67015;-88
2023/06/26 00:53:01;;;;;;;;;;;;;;;25.94;49.82;100253.91;109370;1261;66911;-89
2023/06/26 00:55:30;;;;;;;;;;;;;;;25.94;49.96;100250.62;109518;1260;68399;-89
2023/06/26 01:00:38;;;;;;;;;;;;;;;25.93;50.07;100245.16;109509;1260;67755;-89
2023/06/26 01:03:08;;;;;;;;;;;;;;;25.93;49.86;100247.02;109543;1262;67639;-89
2023/06/26 01:05:35;;;;;;;;;;;;;;;25.93;49.90;100245.42;109388;1262;67480;-90
2023/06/26 01:08:04;;;;;;;;;;;;;;;25.93;50.06;100242.75;109460;1261;67710;-90
2023/06/26 01:10:32;;;;;;;;;;;;;;;25.94;49.94;100243.77;109552;1261;75267;-90
2023/06/26 01:12:58;;;;;;;;;;;;;;;25.93;49.96;100243.32;109360;1263;67246;-90
2023/06/26 01:15:28;;;;;;;;;;;;;;;25.93;50.02;100241.30;109441;1261;67743;-90
2023/06/26 01:17:59;;;;;;;;;;;;;;;25.93;49.95;100242.59;109610;1262;67586;-90
2023/06/26 01:20:27;;;;;;;;;;;;;;;25.93;50.02;100241.57;109584;1263;67525;-90
2023/06/26 01:23:00;;;;;;;;;;;;;;;25.93;49.87;100239.34;109535;1262;74353;-90
2023/06/26 01:25:40;;;;;;;;;;;;;;;25.94;49.91;100238.66;109554;1261;66865;-90
2023/06/26 01:28:05;;;;;;;;;;;;;;;25.93;50.09;100240.44;109594;1261;66828;-90
2023/06/26 01:30:32;;;;;;;;;;;;;;;25.92;50.01;100238.70;109401;1261;66906;-90
2023/06/26 01:32:58;;;;;;;;;;;;;;;25.92;49.96;100239.01;109444;1262;66915;-90
2023/06/26 01:35:26;;;;;;;;;;;;;;;25.92;50.01;100239.67;109449;1263;73069;-89
2023/06/26 01:40:24;;;;;;;;;;;;;;;25.92;50.00;100241.07;109616;1261;66853;-90
2023/06/26 01:42:53;;;;;;;;;;;;;;;25.92;50.15;100240.10;109383;1260;66931;-89
2023/06/26 01:48:12;;;;;;;;;;;;;;;25.91;49.98;100231.81;109130;1261;5553128;-89
2023/06/26 01:56:19;;;;;;;;;;;;;;;25.91;49.86;100232.48;109570;1262;67022;-89
2023/06/26 02:01:28;;;;;;;;;;;;;;;25.91;49.85;100226.09;109629;1263;67377;-89
2023/06/26 02:11:53;;;;;;;;;;;;;;;25.91;49.99;100216.98;109591;1260;67730;-89
2023/06/26 02:22:36;;;;;;;;;;;;;;;25.90;50.17;100209.52;109616;1261;67086;-89
2023/06/26 02:25:05;;;;;;;;;;;;;;;25.90;50.08;100209.11;109367;1263;67988;-89
2023/06/26 02:27:36;;;;;;;;;;;;;;;25.90;50.13;100205.76;108755;1262;555679;-89
2023/06/26 02:30:05;;;;;;;;;;;;;;;25.89;49.93;100202.22;109597;1261;83116;-89
2023/06/26 02:38:05;;;;;;;;;;;;;;;25.90;50.00;100193.20;109634;1263;66948;-89
2023/06/26 02:40:33;;;;;;;;;;;;;;;25.90;50.16;100191.65;109510;1261;66890;-89
2023/06/26 02:45:48;;;;;;;;;;;;;;;25.90;50.04;100193.91;109595;1261;67219;-89
2023/06/26 02:48:17;;;;;;;;;;;;;;;25.88;50.05;100190.65;109641;1262;68187;-89
2023/06/26 02:50:49;;;;;;;;;;;;;;;25.89;49.98;100193.57;109179;1262;560457;-93
2023/06/26 02:53:37;;;;;;;;;;;;;;;25.88;50.06;100188.47;109748;1263;66791;-89
2023/06/26 02:56:22;;;;;;;;;;;;;;;25.85;50.11;100189.92;109276;1260;554449;-92
2023/06/26 03:01:31;;;;;;;;;;;;;;;25.78;50.02;100193.89;109250;1262;555375;-90
2023/06/26 03:04:00;;;;;;;;;;;;;;;25.75;50.24;100195.67;108807;1263;555603;-89
2023/06/26 03:06:27;;;;;;;;;;;;;;;25.72;50.15;100195.20;108669;1262;559999;-88
2023/06/26 03:17:31;;;;;;;;;;;;;;;25.56;50.46;100193.38;109049;1263;554819;-92
2023/06/26 03:20:18;;;;;;;;;;;;;;;25.52;50.43;100195.64;108957;1263;554778;-92
2023/06/26 03:22:52;;;;;;;;;;;;;;;25.48;50.76;100200.11;109045;1260;560135;-91
2023/06/26 03:25:22;;;;;;;;;;;;;;;25.47;50.58;100208.89;109357;1262;67371;-90
2023/06/26 03:27:47;;;;;;;;;;;;;;;25.47;50.68;100209.46;109338;1264;67448;-89
2023/06/26 03:30:15;;;;;;;;;;;;;;;25.48;50.52;100213.77;108516;1262;557437;-89
2023/06/26 03:46:08;;;;;;;;;;;;;;;25.51;50.83;100205.88;109018;1262;556164;-89
2023/06/26 03:48:35;;;;;;;;;;;;;;;25.51;50.69;100201.80;108480;1262;555382;-89
2023/06/26 03:53:50;;;;;;;;;;;;;;;25.53;50.72;100205.88;109526;1264;67079;-89
2023/06/26 04:01:38;;;;;;;;;;;;;;;25.54;50.72;100202.45;109517;1261;74330;31
2023/06/26 04:04:04;;;;;;;;;;;;;;;25.52;50.66;100202.59;109116;1263;67296;-88
2023/06/26 04:11:46;;;;;;;;;;;;;;;25.45;50.83;100202.00;109479;1261;67456;-89
2023/06/26 04:19:35;;;;;;;;;;;;;;;25.40;50.99;100200.70;109339;1263;67068;-88
2023/06/26 04:22:01;;;;;;;;;;;;;;;25.38;50.92;100201.66;109292;1264;67529;-89
2023/06/26 04:24:30;;;;;;;;;;;;;;;25.37;50.87;100201.29;109346;1262;67356;-88
2023/06/26 04:26:57;;;;;;;;;;;;;;;25.36;51.19;100202.33;109347;1262;75202;-89
2023/06/26 04:32:09;;;;;;;;;;;;;;;25.32;51.13;100201.83;109282;1263;67116;-90
2023/06/26 04:34:40;;;;;;;;;;;;;;;25.30;51.18;100205.42;109334;1264;66995;-87
2023/06/26 04:40:09;;;;;;;;;;;;;;;25.23;51.47;100205.09;109488;1261;74609;-90
2023/06/26 04:45:09;;;;;;;;;;;;;;;25.15;51.61;100208.85;109359;1262;68200;-89
2023/06/26 04:47:39;;;;;;;;;;;;;;;25.12;51.61;100210.61;109204;1262;67246;-90
2023/06/26 04:50:09;;;;;;;;;;;;;;;25.10;51.62;100211.54;109299;1263;67646;-89
2023/06/26 04:52:46;;;;;;;;;;;;;;;25.08;51.83;100212.04;109319;1260;75238;31
2023/06/26 05:00:42;;;;;;;;;;;;;;;25.01;52.20;100214.50;109312;1263;67544;-90
2023/06/26 05:03:23;;;;;;;;;;;;;;;25.01;52.24;100214.09;109360;1262;73505;-92
2023/06/26 05:11:33;;;;;;;;;;;;;;;24.99;52.24;100217.02;109336;1263;67041;-88
2023/06/26 05:13:58;;;;;;;;;;;;;;;25.00;52.37;100221.89;109373;1263;67472;-89
2023/06/26 05:16:24;;;;;;;;;;;;;;;25.03;52.60;100222.44;109245;1263;66990;-88
2023/06/26 05:18:50;;;;;;;;;;;;;;;25.05;52.49;100221.14;109424;1263;67804;-89
2023/06/26 05:21:15;;;;;;;;;;;;;;;25.07;52.38;100222.56;109227;1263;68086;-87
2023/06/26 05:23:44;;;;;;;;;;;;;;;25.06;52.40;100225.20;109251;1264;67871;-90
2023/06/26 05:26:13;;;;;;;;;;;;;;;25.05;52.44;100227.07;109413;1264;66973;-91
2023/06/26 05:29:07;;;;;;;;;;;;;;;25.03;52.35;100229.73;109557;1262;74428;-87
2023/06/26 05:31:33;;;;;;;;;;;;;;;25.02;52.44;100228.33;109297;1263;66886;-87
2023/06/26 05:34:02;;;;;;;;;;;;;;;25.01;52.53;100227.73;109268;1261;67576;-90
2023/06/26 05:36:28;;;;;;;;;;;;;;;24.97;52.49;100230.40;109306;1263;67943;-90
2023/06/26 05:38:56;;;;;;;;;;;;;;;24.93;52.37;100231.55;109329;1262;67684;-90
2023/06/26 05:47:42;;;;;;;;;;;;;;;24.88;52.59;100233.91;109396;1262;67223;-90
2023/06/26 05:50:11;;;;;;;;;;;;;;;24.91;52.81;100234.06;109374;1262;67391;-91
2023/06/26 05:55:19;;;;;;;;;;;;;;;24.98;52.52;100233.81;109437;1263;83414;-89
2023/06/26 05:57:48;;;;;;;;;;;;;;;25.00;52.53;100232.80;109358;1263;67549;-90
2023/06/26 06:36:16;;;;;;;;;;;;;;;25.24;52.36;100246.45;109601;1264;66092;-88
2023/06/26 07:07:19;;;;;;;;;;;;;;;25.32;52.06;100249.82;109488;1265;74261;-87
2023/06/26 07:09:54;;;;;;;;;;;;;;;25.33;52.12;100252.13;109258;1260;67493;-92
2023/06/26 07:12:19;;;;;;;;;;;;;;;25.33;52.02;100248.47;109374;1260;67964;-87
2023/06/26 07:14:45;;;;;;;;;;;;;;;25.34;51.97;100250.84;109360;1260;67565;-85
2023/06/26 07:17:10;;;;;;;;;;;;;;;25.34;52.10;100252.37;109569;1261;66957;-87
2023/06/26 07:19:36;;;;;;;;;;;;;;;25.35;52.20;100252.96;109488;1260;67645;-86
2023/06/26 07:22:01;;;;;;;;;;;;;;;25.35;52.04;100251.52;109360;1260;67630;-87
2023/06/26 07:24:27;;;;;;;;;;;;;;;25.36;52.06;100255.01;109579;1260;67604;-90
2023/06/26 07:26:53;;;;;;;;;;;;;;;25.36;51.98;100253.30;109379;1260;67712;-88
2023/06/26 07:29:19;;;;;;;;;;;;;;;25.36;52.03;100252.64;109328;1261;67276;-90
2023/06/26 07:31:47;;;;;;;;;;;;;;;25.36;52.09;100252.79;109443;1261;67897;-91
2023/06/26 07:34:13;;;;;;;;;;;;;;;25.36;52.14;100254.79;109513;1261;67693;-89
2023/06/26 07:42:05;;;;;;;;;;;;;;;25.38;51.75;100254.61;109483;1260;74245;-90
2023/06/26 07:55:46;;;;;;;;;;;;;;;25.41;51.86;100257.11;108671;1260;560917;-89
2023/06/26 08:01:23;;;;;;;;;;;;;;;25.44;51.71;100253.99;109531;1260;66980;-92
2023/06/26 08:03:54;;;;;;;;;;;;;;;25.45;51.78;100258.50;109663;1262;67664;-90
2023/06/26 08:06:25;;;;;;;;;;;;;;;25.46;51.94;100256.88;109662;1260;67512;-92
2023/06/26 08:18:03;;;;;;;;;;;;;;;25.48;51.67;100246.64;109536;1262;66829;-91
2023/06/26 08:23:16;;;;;;;;;;;;;;;25.49;51.62;100250.62;109370;1262;74281;-91
2023/06/26 08:25:51;;;;;;;;;;;;;;;25.50;51.73;100253.91;109353;1262;67945;-91
2023/06/26 08:28:19;;;;;;;;;;;;;;;25.50;51.74;100254.52;109411;1262;67261;-91
2023/06/26 08:30:48;;;;;;;;;;;;;;;25.49;51.64;100255.98;109492;1259;67485;-91
2023/06/26 08:41:43;;;;;;;;;;;;;;;25.34;51.60;100250.76;109324;1262;68335;-89
2023/06/26 08:44:10;;;;;;;;;;;;;;;25.32;51.67;100250.09;109330;1263;67771;-91
2023/06/26 08:47:22;;;;;;;;;;;;;;;25.33;51.53;100248.33;109196;1263;66991;-91
2023/06/26 08:50:13;;;;;;;;;;;;;;;25.34;51.49;100247.32;109424;1261;74574;-86
2023/06/26 08:53:14;;;;;;;;;;;;;;;25.35;51.44;100248.16;109495;1260;67684;-91
2023/06/26 08:55:41;;;;;;;;;;;;;;;25.37;51.39;100247.46;109484;1260;67467;-90
2023/06/26 09:05:48;;;;;;;;;;;;;;;25.43;51.38;100238.45;109506;1260;67722;-89
2023/06/26 09:16:42;;;;;;;;;;;;;;;25.48;51.23;100229.91;109577;1260;73588;-91
2023/06/26 09:22:07;;;;;;;;;;;;;;;25.50;51.10;100224.19;109549;1260;67412;-92
2023/06/26 09:24:33;;;;;;;;;;;;;;;25.50;51.05;100224.30;109642;1260;67455;-89
2023/06/26 09:26:59;;;;;;;;;;;;;;;25.48;50.79;100223.60;109656;1260;66978;-89
2023/06/26 09:32:08;;;;;;;;;;;;;;;25.49;50.97;100228.90;109571;1262;67521;-88
2023/06/26 09:34:33;;;;;;;;;;;;;;;25.49;50.86;100228.30;109374;1260;67604;-89
2023/06/26 09:37:02;;;;;;;;;;;;;;;25.49;50.92;100226.48;109397;1259;67578;-88
2023/06/26 09:39:30;;;;;;;;;;;;;;;25.49;50.68;100223.23;109686;1258;67583;-89
2023/06/26 09:41:57;;;;;;;;;;;;;;;25.48;50.78;100224.98;109583;1261;74419;-90
2023/06/26 09:44:23;;;;;;;;;;;;;;;25.48;50.69;100226.85;109611;1260;67571;-90
2023/06/26 09:46:49;;;;;;;;;;;;;;;25.50;50.93;100223.31;109457;1260;67248;-90
2023/06/26 09:49:15;;;;;;;;;;;;;;;25.52;50.83;100223.77;109397;1260;68390;-90
2023/06/26 09:51:41;;;;;;;;;;;;;;;25.52;50.83;100217.27;109484;1260;67698;-89
2023/06/26 09:56:40;;;;;;;;;;;;;;;25.50;50.63;100212.97;109520;1260;67715;-89
2023/06/26 09:59:06;;;;;;;;;;;;;;;25.49;50.44;100214.84;109450;1260;67484;-88
2023/06/26 10:01:32;;;;;;;;;;;;;;;25.48;50.49;100211.70;109453;1260;68352;-89
2023/06/26 10:03:57;;;;;;;;;;;;;;;25.49;50.65;100209.18;109539;1260;68708;-89
2023/06/26 10:06:30;;;;;;;;;;;;;;;25.50;50.55;100212.44;109451;1260;67721;-89
2023/06/26 10:08:56;;;;;;;;;;;;;;;25.50;50.45;100209.50;109690;1260;67421;-89
2023/06/26 10:11:22;;;;;;;;;;;;;;;25.51;50.42;100205.16;109632;1261;66828;-89
2023/06/26 10:13:48;;;;;;;;;;;;;;;25.52;50.24;100210.48;109497;1260;67667;-90
2023/06/26 10:16:17;;;;;;;;;;;;;;;25.54;50.13;100205.44;109432;1260;67102;-90
2023/06/26 10:18:43;;;;;;;;;;;;;;;25.55;50.03;100198.09;109507;1260;74074;-89
2023/06/26 10:21:15;;;;;;;;;;;;;;;25.56;50.04;100200.86;109480;1260;67680;31
2023/06/26 10:23:41;;;;;;;;;;;;;;;25.57;50.04;100196.56;109681;1260;67441;-89
2023/06/26 10:26:06;;;;;;;;;;;;;;;25.58;49.87;100196.27;109528;1260;67918;-89
2023/06/26 10:28:33;;;;;;;;;;;;;;;25.60;49.88;100193.15;109378;1260;67550;-89
2023/06/26 10:30:59;;;;;;;;;;;;;;;25.59;49.53;100191.70;109560;1260;67701;-89
2023/06/26 10:33:25;;;;;;;;;;;;;;;25.59;49.27;100191.14;109460;1261;67130;-88
2023/06/26 10:35:51;;;;;;;;;;;;;;;25.59;49.25;100186.88;109477;1260;67665;-88
2023/06/26 10:38:18;;;;;;;;;;;;;;;25.60;48.96;100184.27;109463;1260;67524;-89
2023/06/26 10:40:44;;;;;;;;;;;;;;;25.62;48.89;100186.90;109540;1260;74186;-89
2023/06/26 10:43:11;;;;;;;;;;;;;;;25.62;48.78;100184.08;109347;1260;67148;-90
2023/06/26 10:45:37;;;;;;;;;;;;;;;25.62;48.64;100179.70;109483;1259;67802;-88
2023/06/26 10:48:09;;;;;;;;;;;;;;;25.63;48.71;100174.79;109558;1259;66970;31
2023/06/26 10:50:40;;;;;;;;;;;;;;;25.61;48.59;100175.60;109517;1260;67473;-89
2023/06/26 10:53:13;;;;;;;;;;;;;;;25.60;48.16;100174.54;109379;1260;74241;-88
2023/06/26 10:55:43;;;;;;;;;;;;;;;25.60;47.94;100168.30;109595;1260;67089;-89
2023/06/26 11:00:50;;;;;;;;;;;;;;;25.60;47.97;100165.73;109580;1260;66964;-88
2023/06/26 11:03:24;;;;;;;;;;;;;;;25.61;47.96;100159.92;109573;1262;67595;-89
2023/06/26 11:08:47;;;;;;;;;;;;;;;25.65;47.50;100163.81;109594;1263;67074;-88
2023/06/26 11:11:41;;;;;;;;;;;;;;;25.68;47.50;100167.15;109502;1260;67480;-88
2023/06/26 11:14:06;;;;;;;;;;;;;;;25.69;47.37;100163.92;109481;1260;66898;-88
2023/06/26 11:16:32;;;;;;;;;;;;;;;25.71;47.36;100162.23;109407;1260;67727;-87
2023/06/26 11:18:58;;;;;;;;;;;;;;;25.71;47.41;100164.58;109278;1260;67745;-88
2023/06/26 11:21:23;;;;;;;;;;;;;;;25.72;47.22;100160.51;109376;1260;67564;-88
2023/06/26 11:26:28;;;;;;;;;;;;;;;25.74;47.13;100160.87;109596;1262;68013;-89
2023/06/26 11:28:57;;;;;;;;;;;;;;;25.74;47.26;100161.63;109604;1260;67028;-88
2023/06/26 11:31:32;;;;;;;;;;;;;;;25.76;47.22;100158.49;109413;1260;67513;-88
2023/06/26 11:33:58;;;;;;;;;;;;;;;25.78;47.09;100150.20;109416;1260;67617;-88
2023/06/26 11:36:25;;;;;;;;;;;;;;;25.81;47.04;100157.70;109470;1260;67469;-88
2023/06/26 11:41:17;;;;;;;;;;;;;;;25.84;46.70;100155.23;109564;1260;74465;-88
2023/06/26 11:43:43;;;;;;;;;;;;;;;25.85;46.73;100155.06;109573;1260;67552;-88
2023/06/26 11:46:08;;;;;;;;;;;;;;;25.86;46.51;100158.39;109539;1260;67579;-88
2023/06/26 11:48:34;;;;;;;;;;;;;;;25.88;46.22;100158.67;109594;1260;67526;-88
2023/06/26 11:50:59;;;;;;;;;;;;;;;25.88;46.19;100163.70;109528;1260;68835;-89
2023/06/26 11:53:25;;;;;;;;;;;;;;;25.89;46.10;100166.65;109548;1261;66935;-88
2023/06/26 11:55:50;;;;;;;;;;;;;;;25.89;46.08;100164.23;109565;1260;67601;-89
2023/06/26 11:58:16;;;;;;;;;;;;;;;25.89;46.09;100166.34;109532;1260;66939;-89
2023/06/26 12:00:42;;;;;;;;;;;;;;;25.89;45.89;100164.72;109493;1264;67593;-88
2023/06/26 12:03:08;;;;;;;;;;;;;;;25.89;45.79;100161.06;109620;1260;66967;-88
2023/06/26 12:05:33;;;;;;;;;;;;;;;25.89;45.81;100160.52;109590;1260;67575;-89
2023/06/26 12:07:59;;;;;;;;;;;;;;;25.89;45.59;100158.41;109574;1260;66968;-88
2023/06/26 12:10:29;;;;;;;;;;;;;;;25.89;45.61;100154.66;109646;1260;67485;-88
2023/06/26 12:12:58;;;;;;;;;;;;;;;25.88;45.47;100160.15;109443;1260;83271;-88
2023/06/26 12:15:24;;;;;;;;;;;;;;;25.87;45.56;100162.91;109462;1260;67759;-88
2023/06/26 12:17:53;;;;;;;;;;;;;;;25.86;45.63;100161.48;109552;1260;67510;-87
2023/06/26 12:20:22;;;;;;;;;;;;;;;25.86;45.55;100155.23;109757;1259;67519;-88
2023/06/26 12:22:48;;;;;;;;;;;;;;;25.84;45.50;100155.20;109590;1260;66898;-88
2023/06/26 12:25:13;;;;;;;;;;;;;;;25.83;45.38;100159.88;109527;1260;67357;-89
2023/06/26 12:27:39;;;;;;;;;;;;;;;25.81;45.46;100165.00;109517;1261;67603;-88
2023/06/26 12:30:05;;;;;;;;;;;;;;;25.81;45.34;100164.80;109521;1261;67488;-88
2023/06/26 12:35:12;;;;;;;;;;;;;;;25.79;45.20;100157.99;109540;1262;67422;-88
2023/06/26 12:37:42;;;;;;;;;;;;;;;25.80;45.22;100157.20;109528;1261;67867;-88
2023/06/26 12:40:17;;;;;;;;;;;;;;;25.81;45.10;100156.35;109319;1262;66944;-88
2023/06/26 12:42:43;;;;;;;;;;;;;;;25.83;45.10;100153.98;109313;1262;67562;-88
2023/06/26 12:45:12;;;;;;;;;;;;;;;25.85;44.86;100148.59;109448;1260;66911;-88
2023/06/26 12:47:41;;;;;;;;;;;;;;;25.86;45.09;100144.79;109444;1263;67537;-89
2023/06/26 12:50:07;;;;;;;;;;;;;;;25.88;44.92;100143.97;109460;1260;75364;-89
2023/06/26 12:52:33;;;;;;;;;;;;;;;25.90;44.83;100144.59;109450;1260;67513;-88
2023/06/26 12:54:59;;;;;;;;;;;;;;;25.91;44.68;100139.72;109430;1260;67883;-88
2023/06/26 12:57:25;;;;;;;;;;;;;;;25.92;44.54;100135.00;109584;1260;66929;-88
2023/06/26 12:59:51;;;;;;;;;;;;;;;25.92;44.42;100138.86;109484;1260;67579;-88
2023/06/26 13:02:17;;;;;;;;;;;;;;;25.92;44.51;100144.41;109423;1260;67605;-86
2023/06/26 13:04:44;;;;;;;;;;;;;;;25.94;44.13;100143.45;109502;1260;67574;-86
2023/06/26 13:07:09;;;;;;;;;;;;;;;25.94;44.28;100144.74;109508;1260;67230;-87
2023/06/26 13:09:36;;;;;;;;;;;;;;;25.95;44.36;100145.12;109488;1260;67207;-86
2023/06/26 13:12:03;;;;;;;;;;;;;;;25.95;44.23;100143.95;109485;1260;67635;-87
2023/06/26 13:14:38;;;;;;;;;;;;;;;25.94;44.04;100142.92;109301;1260;67525;-92
2023/06/26 13:17:03;;;;;;;;;;;;;;;25.94;44.11;100146.17;109449;1260;67175;-86
2023/06/26 13:19:29;;;;;;;;;;;;;;;25.94;44.22;100142.73;109313;1260;67595;-86
2023/06/26 13:21:54;;;;;;;;;;;;;;;25.94;44.18;100141.76;109483;1260;67669;-87
2023/06/26 13:24:20;;;;;;;;;;;;;;;25.93;44.19;100138.98;109525;1260;67761;-87
2023/06/26 13:26:46;;;;;;;;;;;;;;;25.93;44.02;100140.23;109466;1262;67538;-87
2023/06/26 13:29:11;;;;;;;;;;;;;;;25.93;44.07;100142.04;109345;1260;67328;-86
2023/06/26 13:31:38;;;;;;;;;;;;;;;25.93;44.26;100141.77;109347;1260;67631;-87
2023/06/26 13:34:04;;;;;;;;;;;;;;;25.93;44.11;100144.35;109483;1260;67545;-87
2023/06/26 13:36:29;;;;;;;;;;;;;;;25.94;44.18;100145.45;109445;1260;66828;-86
2023/06/26 13:38:58;;;;;;;;;;;;;;;25.95;44.12;100145.48;109421;1260;67500;-87
2023/06/26 13:41:32;;;;;;;;;;;;;;;25.95;44.18;100149.70;109479;1260;67450;-92
2023/06/26 13:43:58;;;;;;;;;;;;;;;25.96;44.19;100150.32;109446;1260;67582;-86
2023/06/26 13:46:23;;;;;;;;;;;;;;;25.96;44.21;100144.23;109460;1260;67536;-86
2023/06/26 13:48:48;;;;;;;;;;;;;;;25.96;44.18;100146.61;109019;1260;380761;-86
2023/06/26 13:51:14;;;;;;;;;;;;;;;25.96;44.28;100147.79;109455;1260;67484;-86
2023/06/26 13:53:42;;;;;;;;;;;;;;;25.96;44.43;100151.15;109367;1260;66832;-87
2023/06/26 13:56:08;;;;;;;;;;;;;;;25.96;44.70;100152.43;109296;1261;74060;-86
2023/06/26 13:58:34;;;;;;;;;;;;;;;25.95;44.69;100154.00;109415;1260;67285;-86
2023/06/26 14:01:00;;;;;;;;;;;;;;;25.93;44.74;100152.96;109437;1263;67656;-86
2023/06/26 14:03:26;;;;;;;;;;;;;;;25.91;45.21;100154.08;109337;1261;66863;-86
2023/06/26 14:05:51;;;;;;;;;;;;;;;25.90;45.15;100156.39;109428;1260;67715;-86
2023/06/26 14:08:26;;;;;;;;;;;;;;;25.89;45.22;100157.27;109370;1261;67479;-91
2023/06/26 14:10:51;;;;;;;;;;;;;;;25.89;45.47;100155.49;109408;1261;66807;-86
2023/06/26 14:13:17;;;;;;;;;;;;;;;25.88;45.62;100149.91;109315;1261;67579;-87
2023/06/26 14:15:42;;;;;;;;;;;;;;;25.86;45.94;100145.92;109472;1261;67476;-87
2023/06/26 14:18:08;;;;;;;;;;;;;;;25.84;45.96;100143.34;109261;1260;67521;-87
2023/06/26 14:20:33;;;;;;;;;;;;;;;25.83;45.90;100147.15;109313;1261;67563;-87
2023/06/26 14:22:59;;;;;;;;;;;;;;;25.81;45.98;100150.80;109310;1260;66982;-87
2023/06/26 14:25:26;;;;;;;;;;;;;;;25.80;46.15;100149.01;109312;1261;67560;-87
2023/06/26 14:27:51;;;;;;;;;;;;;;;25.79;46.29;100143.41;109332;1260;67789;-87
2023/06/26 14:30:17;;;;;;;;;;;;;;;25.79;46.44;100143.94;109426;1261;66895;-87
2023/06/26 14:32:42;;;;;;;;;;;;;;;25.79;46.44;100143.26;109243;1260;67764;-88
2023/06/26 14:35:08;;;;;;;;;;;;;;;25.79;46.46;100143.10;109316;1263;67360;-88
2023/06/26 14:37:35;;;;;;;;;;;;;;;25.79;46.76;100140.23;109262;1261;80887;-87
2023/06/26 14:40:00;;;;;;;;;;;;;;;25.78;46.79;100147.40;109234;1260;67741;-87
2023/06/26 14:42:26;;;;;;;;;;;;;;;25.78;46.84;100150.50;109275;1261;66947;-87
2023/06/26 14:44:51;;;;;;;;;;;;;;;25.78;47.02;100150.39;109269;1260;67402;-87
2023/06/26 14:47:17;;;;;;;;;;;;;;;25.79;47.19;100151.61;109403;1261;67694;-87
2023/06/26 14:49:43;;;;;;;;;;;;;;;25.80;46.99;100148.55;109501;1261;67471;-87
2023/06/26 14:52:08;;;;;;;;;;;;;;;25.80;47.06;100149.46;109315;1260;67634;-87
2023/06/26 14:54:36;;;;;;;;;;;;;;;25.81;47.13;100148.83;109291;1262;67616;-87
2023/06/26 14:57:04;;;;;;;;;;;;;;;25.82;47.17;100155.71;109467;1260;67433;-87
2023/06/26 14:59:30;;;;;;;;;;;;;;;25.83;47.32;100156.33;109428;1261;74668;-87
2023/06/26 15:01:55;;;;;;;;;;;;;;;25.83;47.33;100149.98;109287;1261;67652;-87
2023/06/26 15:04:21;;;;;;;;;;;;;;;25.83;47.20;100145.17;109425;1261;67420;-87
2023/06/26 15:06:46;;;;;;;;;;;;;;;25.83;47.38;100147.30;109325;1261;67349;-87
2023/06/26 15:09:12;;;;;;;;;;;;;;;25.83;47.19;100146.27;109319;1261;67469;-87
2023/06/26 15:11:37;;;;;;;;;;;;;;;25.81;47.56;100149.86;109303;1262;67619;-87
2023/06/26 15:14:06;;;;;;;;;;;;;;;25.80;47.60;100152.40;109268;1260;67741;-92
2023/06/26 15:16:31;;;;;;;;;;;;;;;25.79;47.52;100146.55;109442;1260;67637;-87
2023/06/26 15:18:57;;;;;;;;;;;;;;;25.79;47.55;100141.25;109359;1260;67526;-87
2023/06/26 15:21:22;;;;;;;;;;;;;;;25.78;47.64;100140.34;109459;1261;67747;-87
2023/06/26 15:23:48;;;;;;;;;;;;;;;25.78;47.68;100140.34;109299;1261;66984;-87
2023/06/26 15:26:16;;;;;;;;;;;;;;;25.78;47.63;100134.52;109338;1260;67385;-88
2023/06/26 15:28:42;;;;;;;;;;;;;;;25.78;47.77;100134.36;109282;1260;67526;-88
2023/06/26 15:31:07;;;;;;;;;;;;;;;25.78;47.64;100132.16;109322;1260;67442;-87
2023/06/26 15:33:32;;;;;;;;;;;;;;;25.78;47.94;100131.63;109337;1266;67500;-87
2023/06/26 15:35:58;;;;;;;;;;;;;;;25.78;47.77;100132.63;109347;1260;67224;-87
2023/06/26 15:38:23;;;;;;;;;;;;;;;25.77;47.76;100137.08;109351;1263;67450;-87
2023/06/26 15:43:33;;;;;;;;;;;;;;;25.76;47.66;100142.26;109402;1263;67655;-86
2023/06/26 15:45:58;;;;;;;;;;;;;;;25.76;47.80;100143.77;109422;1263;67954;-87
2023/06/26 15:48:28;;;;;;;;;;;;;;;25.75;48.00;100145.13;109297;1263;66924;-87
2023/06/26 15:50:54;;;;;;;;;;;;;;;25.75;48.09;100145.05;109251;1263;67540;-87
2023/06/26 15:53:19;;;;;;;;;;;;;;;25.74;48.00;100154.18;109237;1262;67546;-86
2023/06/26 15:55:44;;;;;;;;;;;;;;;25.73;48.18;100154.40;109180;1262;67584;-86
2023/06/26 15:58:10;;;;;;;;;;;;;;;25.73;48.04;100156.89;109454;1261;67047;-87
2023/06/26 16:00:36;;;;;;;;;;;;;;;25.72;48.24;100162.81;109342;1262;67734;-87
2023/06/26 16:03:02;;;;;;;;;;;;;;;25.72;48.15;100163.49;109278;1262;74060;-87
2023/06/26 16:05:27;;;;;;;;;;;;;;;25.72;48.15;100167.62;109246;1263;67855;-87
2023/06/26 16:08:01;;;;;;;;;;;;;;;25.73;48.21;100171.48;109229;1261;67593;-93
2023/06/26 16:10:28;;;;;;;;;;;;;;;25.72;48.20;100176.98;109412;1263;67412;-87
2023/06/26 16:12:54;;;;;;;;;;;;;;;25.72;48.35;100176.15;109308;1262;66813;-87
2023/06/26 16:15:19;;;;;;;;;;;;;;;25.73;48.25;100185.23;109440;1262;67053;-87
2023/06/26 16:17:45;;;;;;;;;;;;;;;25.73;48.29;100181.61;109469;1263;66858;-87
2023/06/26 16:20:11;;;;;;;;;;;;;;;25.74;48.37;100179.95;109293;1262;67449;-88
2023/06/26 16:22:36;;;;;;;;;;;;;;;25.74;48.38;100179.16;109306;1262;67889;-87
2023/06/26 16:25:01;;;;;;;;;;;;;;;25.75;48.29;100175.98;109462;1263;70961;-87
2023/06/26 16:27:27;;;;;;;;;;;;;;;25.76;48.51;100174.78;109253;1262;67554;-87
2023/06/26 16:29:52;;;;;;;;;;;;;;;25.76;48.58;100169.46;109224;1262;67766;-87
2023/06/26 16:32:18;;;;;;;;;;;;;;;25.77;48.46;100167.98;109334;1261;67526;-88
2023/06/26 16:34:53;;;;;;;;;;;;;;;25.78;48.60;100166.21;109339;1263;67552;-90
2023/06/26 16:37:18;;;;;;;;;;;;;;;25.79;48.49;100162.75;109474;1261;67568;-87
2023/06/26 16:39:43;;;;;;;;;;;;;;;25.80;48.55;100165.25;109449;1261;67405;-87
2023/06/26 16:42:09;;;;;;;;;;;;;;;25.80;48.64;100165.61;109355;1262;67572;-87
2023/06/26 16:44:34;;;;;;;;;;;;;;;25.80;48.51;100165.17;109292;1263;67481;-87
2023/06/26 16:47:01;;;;;;;;;;;;;;;25.81;48.40;100171.77;109272;1263;67793;-87
2023/06/26 16:49:27;;;;;;;;;;;;;;;25.81;48.43;100172.63;109259;1262;67500;-87
2023/06/26 16:51:58;;;;;;;;;;;;;;;25.82;48.52;100172.42;109268;1262;67578;-87
2023/06/26 16:54:24;;;;;;;;;;;;;;;25.82;48.64;100172.04;109264;1263;67399;-87
2023/06/26 16:56:51;;;;;;;;;;;;;;;25.83;48.60;100171.79;109281;1262;67546;-87
2023/06/26 16:59:16;;;;;;;;;;;;;;;25.83;48.59;100171.66;109245;1263;67758;-87
2023/06/26 17:01:45;;;;;;;;;;;;;;;25.83;48.59;100172.39;109307;1261;67437;-92
2023/06/26 17:04:11;;;;;;;;;;;;;;;25.84;48.51;100177.98;109507;1262;66794;-87
2023/06/26 17:06:36;;;;;;;;;;;;;;;25.84;48.64;100184.80;109329;1262;67190;-87